Conejos, Valles Caldera, New Mexico Weather observations

Data are for 10 minute period ending at time listed.
 Day   Time   Solar   Ave.   Ave.  Ave.  Vector  Max.   Baro.   Total    
  of    of     Rad.   Air    Rel.  Wind   Wind   Wind  Press.  Precip.   
Year   Day            Temp.  Hum.  Speed  Dir.   Gust                    
2016   (MST)  Kw/m2    F      %     mph   deg.    mph    mb.     in.     
-------------------------------------------------------------------------
 240   15:30   0.10   64.4    38    0.0     0     0.0   99999.0    0.00 
 240   15:40   0.08   64.1    37    0.0     0     0.0   99999.0    0.00 
 240   15:50   0.02   63.5    37    0.0     0     0.0   99999.0    0.00 
 240   16:00   0.01   59.8    48    0.0     0     0.0   99999.0    0.00 
 240   16:10   0.00   52.3    76    0.0     0     0.0   99999.0    0.00 
 240   16:20   0.00   50.2    85    0.0     0     0.0   99999.0    0.02 
 240   16:30   0.01   49.2    88    0.0     0     0.0   99999.0    0.01 
 240   16:40   0.01   48.1    92    0.0     0     0.0   99999.0    0.01 
 240   16:50   0.01   48.0    90    0.0     0     0.0   99999.0    0.00 
 240   17:00   0.02   47.9    91    0.0     0     0.0   99999.0    0.00 
 240   17:10   0.02   47.5    92    0.0     0     0.0   99999.0    0.00 
 240   17:20   0.04   47.5    90    0.0     0     0.0   99999.0    0.00 
 240   17:30   0.05   47.8    89    0.0     0     0.0   99999.0    0.00 
 240   17:40   0.04   48.1    86    0.0     0     0.0   99999.0    0.00 
 240   17:50   0.03   48.2    85    0.0     0     0.0   99999.0    0.00 
 240   18:00   0.02   48.3    83    0.0     0     0.0   99999.0    0.00 
 240   18:10   0.01   49.2    78    0.0     0     0.0   99999.0    0.00 
 240   18:20   0.01   49.0    82    0.0     0     0.0   99999.0    0.00 
 240   18:30   0.01   48.0    87    0.0     0     0.0   99999.0    0.00 
 240   18:40   0.01   47.7    88    0.0     0     0.0   99999.0    0.00 
 240   18:50   0.00   47.5    88    0.0     0     0.0   99999.0    0.00 
 240   19:00   0.00   47.2    88    0.0     0     0.0   99999.0    0.00 
 240   19:10   0.00   48.0    80    0.0     0     0.0   99999.0    0.00 
 240   19:20   0.00   48.2    78    0.0     0     0.0   99999.0    0.00 
 240   19:30   0.00   49.2    72    0.0     0     0.0   99999.0    0.00 
 240   19:40   0.00   49.5    70    0.0     0     0.0   99999.0    0.00 
 240   19:50   0.00   48.5    75    0.0     0     0.0   99999.0    0.00 
 240   20:00   0.00   49.8    68    0.0     0     0.0   99999.0    0.00 
 240   20:10   0.00   49.4    71    0.0     0     0.0   99999.0    0.00 
 240   20:20   0.00   48.2    76    0.0     0     0.0   99999.0    0.00 
 240   20:30   0.00   47.9    77    0.0     0     0.0   99999.0    0.00 
 240   20:40   0.00   47.4    77    0.0     0     0.0   99999.0    0.00 
 240   20:50   0.00   48.0    74    0.0     0     0.0   99999.0    0.00 
 240   21:00   0.00   47.2    77    0.0     0     0.0   99999.0    0.00 
 240   21:10   0.00   46.5    82    0.0     0     0.0   99999.0    0.00 
 240   21:20   0.00   45.7    81    0.0     0     0.0   99999.0    0.00 
 240   21:30   0.00   45.4    81    0.0     0     0.0   99999.0    0.00 
 240   21:40   0.00   45.2    81    0.0     0     0.0   99999.0    0.00 
 240   21:50   0.00   44.8    80    0.0     0     0.0   99999.0    0.00 
 240   22:00   0.00   44.6    80    0.0     0     0.0   99999.0    0.00 
 240   22:10   0.00   44.4    80    0.0     0     0.0   99999.0    0.00 
 240   22:20   0.00   44.4    81    0.0     0     0.0   99999.0    0.00 
 240   22:30   0.00   43.9    83    0.0     0     0.0   99999.0    0.00 
 240   22:40   0.00   43.5    82    0.0     0     0.0   99999.0    0.00 
 240   22:50   0.00   44.0    81    0.0     0     0.0   99999.0    0.00 
 240   23:00   0.00   44.4    79    0.0     0     0.0   99999.0    0.00 
 240   23:10   0.00   44.2    79    0.0     0     0.0   99999.0    0.00 
 240   23:20   0.00   44.3    78    0.0     0     0.0   99999.0    0.00 
 240   23:30   0.00   44.4    78    0.0     0     0.0   99999.0    0.00 
 240   23:40   0.00   44.6    77    0.0     0     0.0   99999.0    0.00 
 240   23:50   0.00   44.6    76    0.0     0     0.0   99999.0    0.00 
 241    0:00   0.00   44.2    78    0.0     0     0.0   99999.0    0.00 
 241    0:10   0.00   43.7    80    0.0     0     0.0   99999.0    0.00 
 241    0:20   0.00   44.0    78    0.0     0     0.0   99999.0    0.00 
 241    0:30   0.00   44.0    78    0.0     0     0.0   99999.0    0.00 
 241    0:40   0.00   44.6    77    0.0     0     0.0   99999.0    0.00 
 241    0:50   0.00   44.4    77    0.0     0     0.0   99999.0    0.00 
 241    1:00   0.00   44.8    76    0.0     0     0.0   99999.0    0.00 
 241    1:10   0.00   44.3    76    0.0     0     0.0   99999.0    0.00 
 241    1:20   0.00   44.0    76    0.0     0     0.0   99999.0    0.00 
 241    1:30   0.00   43.4    79    0.0     0     0.0   99999.0    0.00 
 241    1:40   0.00   43.1    79    0.0     0     0.0   99999.0    0.00 
 241    1:50   0.00   43.4    78    0.0     0     0.0   99999.0    0.00 
 241    2:00   0.00   43.4    78    0.0     0     0.0   99999.0    0.00 
 241    2:10   0.00   43.4    78    0.0     0     0.0   99999.0    0.00 
 241    2:20   0.00   43.5    77    0.0     0     0.0   99999.0    0.00 
 241    2:30   0.00   43.6    76    0.0     0     0.0   99999.0    0.00 
 241    2:40   0.00   43.7    75    0.0     0     0.0   99999.0    0.00 
 241    2:50   0.00   44.0    75    0.0     0     0.0   99999.0    0.00 
 241    3:00   0.00   44.9    73    0.0     0     0.0   99999.0    0.00 
 241    3:10   0.00   44.6    73    0.0     0     0.0   99999.0    0.00 
 241    3:20   0.00   45.1    72    0.0     0     0.0   99999.0    0.00 
 241    3:30   0.00   47.4    67    0.0     0     0.0   99999.0    0.00 
 241    3:40   0.00   48.0    67    0.0     0     0.0   99999.0    0.00 
 241    3:50   0.00   46.1    72    0.0     0     0.0   99999.0    0.00 
 241    4:00   0.00   44.5    77    0.0     0     0.0   99999.0    0.00 
 241    4:10   0.00   45.2    76    0.0     0     0.0   99999.0    0.00 
 241    4:20   0.00   46.2    74    0.0     0     0.0   99999.0    0.00 
 241    4:30   0.00   45.5    77    0.0     0     0.0   99999.0    0.00 
 241    4:40   0.00   46.5    75    0.0     0     0.0   99999.0    0.00 
 241    4:50   0.00   46.6    74    0.0     0     0.0   99999.0    0.00 
 241    5:00   0.00   47.0    72    0.0     0     0.0   99999.0    0.00 
 241    5:10   0.00   46.2    75    0.0     0     0.0   99999.0    0.00 
 241    5:20   0.00   45.1    77    0.0     0     0.0   99999.0    0.00 
 241    5:30   0.00   45.6    74    0.0     0     0.0   99999.0    0.00 
 241    5:40   0.00   45.7    72    0.0     0     0.0   99999.0    0.00 
 241    5:50   0.00   46.7    69    0.0     0     0.0   99999.0    0.00 
 241    6:00   0.01   45.4    71    0.0     0     0.0   99999.0    0.00 
 241    6:10   0.01   44.6    72    0.0     0     0.0   99999.0    0.00 
 241    6:20   0.03   43.7    78    0.0     0     0.0   99999.0    0.00 
 241    6:30   0.04   43.6    79    0.0     0     0.0   99999.0    0.00 
 241    6:40   0.08   46.2    74    0.0     0     0.0   99999.0    0.00 
 241    6:50   0.08   49.6    68    0.0     0     0.0   99999.0    0.00 
 241    7:00   0.05   49.3    75    0.0     0     0.0   99999.0    0.00 
 241    7:10   0.05   49.2    75    0.0     0     0.0   99999.0    0.00 
 241    7:20   0.03   50.2    73    0.0     0     0.0   99999.0    0.00 
 241    7:30   0.02   49.8    76    0.0     0     0.0   99999.0    0.00 
 241    7:40   0.03   49.3    76    0.0     0     0.0   99999.0    0.00 
 241    7:50   0.07   49.2    77    0.0     0     0.0   99999.0    0.00 
 241    8:00   0.13   49.8    73    0.0     0     0.0   99999.0    0.00 
 241    8:10   0.08   50.7    72    0.0     0     0.0   99999.0    0.00 
 241    8:20   0.12   50.7    71    0.0     0     0.0   99999.0    0.00 
 241    8:30   0.08   50.7    71    0.0     0     0.0   99999.0    0.00 
 241    8:40   0.15   52.0    68    0.0     0     0.0   99999.0    0.00 
 241    8:50   0.16   52.5    64    0.0     0     0.0   99999.0    0.00 
 241    9:00   0.49   53.4    64    0.0     0     0.0   99999.0    0.00 
 241    9:10   0.56   55.3    58    0.0     0     0.0   99999.0    0.00 
 241    9:20   0.20   56.2    58    0.0     0     0.0   99999.0    0.00 
 241    9:30   0.18   57.8    54    0.0     0     0.0   99999.0    0.00 
 241    9:40   0.09   57.4    53    0.0     0     0.0   99999.0    0.00 
 241    9:50   0.24   57.9    51    0.0     0     0.0   99999.0    0.00 
 241   10:00   0.69   58.4    49    0.0     0     0.0   99999.0    0.00 
 241   10:10   0.72   59.3    41    0.0     0     0.0   99999.0    0.00 
 241   10:20   0.74   59.3    38    0.0     0     0.0   99999.0    0.00 
 241   10:30   0.68   60.2    36    0.0     0     0.0   99999.0    0.00 
 241   10:40   0.77   60.7    37    0.0     0     0.0   99999.0    0.00 
 241   10:50   0.79   61.8    36    0.0     0     0.0   99999.0    0.00 
 241   11:00   0.81   63.0    34    0.0     0     0.0   99999.0    0.00 
 241   11:10   0.83   63.3    32    0.0     0     0.0   99999.0    0.00 
 241   11:20   0.80   63.0    32    0.0     0     0.0   99999.0    0.00 
 241   11:30   0.45   62.9    31    0.0     0     0.0   99999.0    0.00 
 241   11:40   0.53   61.4    32    0.0     0     0.0   99999.0    0.00 
 241   11:50   0.91   64.3    32    0.0     0     0.0   99999.0    0.00 
 241   12:00   0.87   65.2    28    0.0     0     0.0   99999.0    0.00 
 241   12:10   0.82   65.0    26    0.0     0     0.0   99999.0    0.00 
 241   12:20   0.69   63.9    27    0.0     0     0.0   99999.0    0.00 
 241   12:30   0.75   63.9    26    0.0     0     0.0   99999.0    0.00 
 241   12:40   0.80   64.6    25    0.0     0     0.0   99999.0    0.00 
 241   12:50   0.79   65.0    25    0.0     0     0.0   99999.0    0.00 
 241   13:00   0.78   65.7    25    0.0     0     0.0   99999.0    0.00 
 241   13:10   0.76   64.9    25    0.0     0     0.0   99999.0    0.00 
 241   13:20   0.70   64.4    24    0.0     0     0.0   99999.0    0.00 
 241   13:30   0.74   64.4    25    0.0     0     0.0   99999.0    0.00 
 241   13:40   0.75   65.5    23    0.0     0     0.0   99999.0    0.00 
 241   13:50   0.41   64.3    24    0.0     0     0.0   99999.0    0.00 
 241   14:00   0.24   64.1    24    0.0     0     0.0   99999.0    0.00 
 241   14:10   0.16   63.9    25    0.0     0     0.0   99999.0    0.00 
 241   14:20   0.15   64.6    26    0.0     0     0.0   99999.0    0.00 
 241   14:30   0.17   64.0    27    0.0     0     0.0   99999.0    0.00 
 241   14:40   0.15   63.0    28    0.0     0     0.0   99999.0    0.00 
 241   14:50   0.10   62.4    29    0.0     0     0.0   99999.0    0.00 
 241   15:00   0.12   61.4    29    0.0     0     0.0   99999.0    0.00 
 241   15:10   0.11   61.4    30    0.0     0     0.0   99999.0    0.00 
 241   15:20   0.08   60.5    33    0.0     0     0.0   99999.0    0.00 

Return to Conejos, Valles Caldera graphs page.


Western Regional Climate Center,wrcc@dri.edu